Archival Weather

Murmansk

Murmansk, Russia (ULMM)

Report from: Tuesday, May 21, 2024 10:30 AM MSK
Current time: Monday, June 17, 2024 9:50 AM MSK

Current weather – Weather history – Daily summaries
Weather forecast

Present weatherSHSNRA
Temperature2.0°C (35.6°F)
Wind chill-3.3°C (26.0°F)
Dew point-9.0°C (15.8°F)
Winds 13.6 kts (7 m/s, 15.7 mph) North-Northwest (330°)
Visibility6.2 mi. (10 km)
Clouds Ceiling: Broken clouds with cumulonimbus 1,100 ft. (335 m)
Broken clouds 4,900 ft. (1,494 m)
Altimeter30.15 in.Hg (1021 mB)
Precip. events QF 6:38 PM
Relative humidity44 %
Density altitude-1,792 ft. (-546 m)
Flight conditions Marginal Visual Meteorological Conditions
Raw dataULMM 210730Z 33007MPS 9999 BKN049 02/M09 Q1021 R31/190060 TEMPO 0800 +SHSNRA BKN011CB RMK QFE758
An error has occurred. This application may no longer respond until reloaded. Reload 🗙